sensor_id;sensor_type;location;lat;lon;timestamp;pressure;altitude;pressure_sealevel;temperature;humidity
49063;BME280;34876;51.464;-0.150;2023-04-06T00:03:47;101464.61;;;18.04;40.20
49063;BME280;34876;51.464;-0.150;2023-04-06T00:06:17;101463.88;;;18.04;40.19
49063;BME280;34876;51.464;-0.150;2023-04-06T00:08:48;101457.52;;;18.05;40.14
49063;BME280;34876;51.464;-0.150;2023-04-06T00:11:17;101457.51;;;18.05;40.16
49063;BME280;34876;51.464;-0.150;2023-04-06T00:13:47;101452.50;;;18.04;40.16
49063;BME280;34876;51.464;-0.150;2023-04-06T00:16:17;101448.12;;;18.03;40.15
49063;BME280;34876;51.464;-0.150;2023-04-06T00:18:46;101443.72;;;18.04;40.17
49063;BME280;34876;51.464;-0.150;2023-04-06T00:21:16;101443.05;;;18.04;40.21
49063;BME280;34876;51.464;-0.150;2023-04-06T00:23:45;101441.19;;;18.03;40.21
49063;BME280;34876;51.464;-0.150;2023-04-06T00:26:15;101440.04;;;18.04;40.22
49063;BME280;34876;51.464;-0.150;2023-04-06T00:28:44;101437.01;;;18.04;40.24
49063;BME280;34876;51.464;-0.150;2023-04-06T00:31:14;101432.89;;;18.05;40.22
49063;BME280;34876;51.464;-0.150;2023-04-06T00:33:44;101430.48;;;18.05;40.24
49063;BME280;34876;51.464;-0.150;2023-04-06T00:36:13;101423.32;;;18.06;40.23
49063;BME280;34876;51.464;-0.150;2023-04-06T00:38:44;101422.09;;;18.05;40.30
49063;BME280;34876;51.464;-0.150;2023-04-06T00:41:20;101419.35;;;18.06;40.26
49063;BME280;34876;51.464;-0.150;2023-04-06T00:43:51;101414.69;;;18.05;40.33
49063;BME280;34876;51.464;-0.150;2023-04-06T00:46:21;101412.94;;;18.05;40.32
49063;BME280;34876;51.464;-0.150;2023-04-06T00:48:51;101411.22;;;18.05;40.35
49063;BME280;34876;51.464;-0.150;2023-04-06T00:51:21;101406.93;;;18.03;40.42
49063;BME280;34876;51.464;-0.150;2023-04-06T00:53:52;101401.75;;;18.05;40.42
49063;BME280;34876;51.464;-0.150;2023-04-06T00:56:21;101399.20;;;18.01;40.49
49063;BME280;34876;51.464;-0.150;2023-04-06T00:58:50;101397.18;;;18.05;40.42
49063;BME280;34876;51.464;-0.150;2023-04-06T01:01:21;101394.08;;;18.06;40.44
49063;BME280;34876;51.464;-0.150;2023-04-06T01:03:51;101391.54;;;18.06;40.42
49063;BME280;34876;51.464;-0.150;2023-04-06T01:06:21;101387.20;;;18.06;40.43
49063;BME280;34876;51.464;-0.150;2023-04-06T01:08:51;101383.23;;;18.06;40.47
49063;BME280;34876;51.464;-0.150;2023-04-06T01:11:20;101379.74;;;18.06;40.47
49063;BME280;34876;51.464;-0.150;2023-04-06T01:13:51;101376.02;;;18.09;40.42
49063;BME280;34876;51.464;-0.150;2023-04-06T01:16:19;101370.90;;;18.08;40.48
49063;BME280;34876;51.464;-0.150;2023-04-06T01:18:52;101364.54;;;18.08;40.48
49063;BME280;34876;51.464;-0.150;2023-04-06T01:21:25;101362.12;;;18.07;40.52
49063;BME280;34876;51.464;-0.150;2023-04-06T01:23:55;101356.72;;;18.07;40.54
49063;BME280;34876;51.464;-0.150;2023-04-06T01:26:29;101355.15;;;18.07;40.57
49063;BME280;34876;51.464;-0.150;2023-04-06T01:29:06;101351.85;;;18.07;40.60
49063;BME280;34876;51.464;-0.150;2023-04-06T01:31:37;101349.27;;;18.07;40.59
49063;BME280;34876;51.464;-0.150;2023-04-06T01:34:16;101343.90;;;18.07;40.61
49063;BME280;34876;51.464;-0.150;2023-04-06T01:36:45;101340.95;;;18.08;40.59
49063;BME280;34876;51.464;-0.150;2023-04-06T01:39:15;101338.54;;;18.08;40.62
49063;BME280;34876;51.464;-0.150;2023-04-06T01:41:43;101332.09;;;18.08;40.63
49063;BME280;34876;51.464;-0.150;2023-04-06T01:44:15;101329.44;;;18.09;40.63
49063;BME280;34876;51.464;-0.150;2023-04-06T01:46:45;101324.29;;;18.09;40.64
49063;BME280;34876;51.464;-0.150;2023-04-06T01:49:15;101323.41;;;18.09;40.67
49063;BME280;34876;51.464;-0.150;2023-04-06T01:51:43;101319.64;;;18.08;40.69
49063;BME280;34876;51.464;-0.150;2023-04-06T01:54:12;101317.39;;;18.08;40.72
49063;BME280;34876;51.464;-0.150;2023-04-06T01:56:41;101310.88;;;18.09;40.70
49063;BME280;34876;51.464;-0.150;2023-04-06T01:59:11;101308.48;;;18.08;40.72
49063;BME280;34876;51.464;-0.150;2023-04-06T02:01:39;101305.50;;;18.09;40.78
49063;BME280;34876;51.464;-0.150;2023-04-06T02:04:09;101303.18;;;18.09;40.75
49063;BME280;34876;51.464;-0.150;2023-04-06T02:06:37;101302.01;;;18.09;40.75
49063;BME280;34876;51.464;-0.150;2023-04-06T02:09:07;101299.72;;;18.10;40.79
49063;BME280;34876;51.464;-0.150;2023-04-06T02:11:37;101292.85;;;18.10;40.77
49063;BME280;34876;51.464;-0.150;2023-04-06T02:14:08;101287.81;;;18.11;40.81
49063;BME280;34876;51.464;-0.150;2023-04-06T02:16:37;101286.07;;;18.10;40.86
49063;BME280;34876;51.464;-0.150;2023-04-06T02:19:07;101282.39;;;18.08;40.84
49063;BME280;34876;51.464;-0.150;2023-04-06T02:21:36;101281.80;;;18.10;40.84
49063;BME280;34876;51.464;-0.150;2023-04-06T02:24:07;101283.17;;;18.10;40.90
49063;BME280;34876;51.464;-0.150;2023-04-06T02:26:36;101279.81;;;18.10;40.89
49063;BME280;34876;51.464;-0.150;2023-04-06T02:29:05;101273.24;;;18.09;40.89
49063;BME280;34876;51.464;-0.150;2023-04-06T02:31:34;101272.83;;;18.10;40.93
49063;BME280;34876;51.464;-0.150;2023-04-06T02:34:04;101267.38;;;18.09;40.99
49063;BME280;34876;51.464;-0.150;2023-04-06T02:36:32;101267.13;;;18.13;40.86
49063;BME280;34876;51.464;-0.150;2023-04-06T02:39:01;101265.50;;;18.11;40.92
49063;BME280;34876;51.464;-0.150;2023-04-06T02:41:30;101261.48;;;18.12;40.94
49063;BME280;34876;51.464;-0.150;2023-04-06T02:44:07;101257.16;;;18.11;40.95
49063;BME280;34876;51.464;-0.150;2023-04-06T02:46:37;101255.34;;;18.10;41.01
49063;BME280;34876;51.464;-0.150;2023-04-06T02:49:08;101254.79;;;18.10;41.03
49063;BME280;34876;51.464;-0.150;2023-04-06T02:51:37;101252.15;;;18.09;41.02
49063;BME280;34876;51.464;-0.150;2023-04-06T02:54:06;101248.44;;;18.10;41.01
49063;BME280;34876;51.464;-0.150;2023-04-06T02:56:35;101243.53;;;18.10;41.00
49063;BME280;34876;51.464;-0.150;2023-04-06T02:59:05;101238.76;;;18.10;41.03
49063;BME280;34876;51.464;-0.150;2023-04-06T03:01:34;101234.83;;;18.09;41.05
49063;BME280;34876;51.464;-0.150;2023-04-06T03:04:03;101231.60;;;18.09;41.10
49063;BME280;34876;51.464;-0.150;2023-04-06T03:06:32;101231.57;;;18.10;41.09
49063;BME280;34876;51.464;-0.150;2023-04-06T03:09:02;101225.79;;;18.09;41.12
49063;BME280;34876;51.464;-0.150;2023-04-06T03:11:31;101225.92;;;18.09;41.14
49063;BME280;34876;51.464;-0.150;2023-04-06T03:14:00;101225.63;;;18.09;41.15
49063;BME280;34876;51.464;-0.150;2023-04-06T03:16:31;101221.75;;;18.08;41.20
49063;BME280;34876;51.464;-0.150;2023-04-06T03:19:00;101217.65;;;18.10;41.18
49063;BME280;34876;51.464;-0.150;2023-04-06T03:21:31;101218.15;;;18.09;41.23
49063;BME280;34876;51.464;-0.150;2023-04-06T03:23:59;101216.73;;;18.09;41.18
49063;BME280;34876;51.464;-0.150;2023-04-06T03:26:31;101213.47;;;18.09;41.19
49063;BME280;34876;51.464;-0.150;2023-04-06T03:29:00;101212.91;;;18.08;41.23
49063;BME280;34876;51.464;-0.150;2023-04-06T03:31:30;101215.09;;;18.08;41.24
49063;BME280;34876;51.464;-0.150;2023-04-06T03:34:00;101211.87;;;18.08;41.24
49063;BME280;34876;51.464;-0.150;2023-04-06T03:36:29;101215.33;;;17.71;42.94
49063;BME280;34876;51.464;-0.150;2023-04-06T03:39:00;101209.62;;;18.04;41.42
49063;BME280;34876;51.464;-0.150;2023-04-06T03:41:30;101197.64;;;18.08;41.31
49063;BME280;34876;51.464;-0.150;2023-04-06T03:44:00;101193.59;;;18.07;41.29
49063;BME280;34876;51.464;-0.150;2023-04-06T03:46:30;101192.81;;;18.08;41.37
49063;BME280;34876;51.464;-0.150;2023-04-06T03:49:01;101191.86;;;18.07;41.31
49063;BME280;34876;51.464;-0.150;2023-04-06T03:51:31;101187.83;;;18.08;41.30
49063;BME280;34876;51.464;-0.150;2023-04-06T03:53:59;101190.12;;;18.06;41.39
49063;BME280;34876;51.464;-0.150;2023-04-06T03:56:35;101189.12;;;18.08;41.32
49063;BME280;34876;51.464;-0.150;2023-04-06T03:59:04;101188.60;;;18.07;41.39
49063;BME280;34876;51.464;-0.150;2023-04-06T04:01:34;101186.18;;;18.08;41.31
49063;BME280;34876;51.464;-0.150;2023-04-06T04:04:04;101188.50;;;18.08;41.34
49063;BME280;34876;51.464;-0.150;2023-04-06T04:06:41;101185.79;;;18.07;41.38
49063;BME280;34876;51.464;-0.150;2023-04-06T04:09:12;101185.15;;;18.08;41.41
49063;BME280;34876;51.464;-0.150;2023-04-06T04:11:41;101182.22;;;18.08;41.40
49063;BME280;34876;51.464;-0.150;2023-04-06T04:14:10;101183.48;;;18.08;41.41
49063;BME280;34876;51.464;-0.150;2023-04-06T04:16:40;101180.27;;;18.08;41.37
49063;BME280;34876;51.464;-0.150;2023-04-06T04:19:09;101177.08;;;18.09;41.38
49063;BME280;34876;51.464;-0.150;2023-04-06T04:21:43;101174.56;;;18.06;41.44
49063;BME280;34876;51.464;-0.150;2023-04-06T04:24:12;101172.05;;;18.06;41.48
49063;BME280;34876;51.464;-0.150;2023-04-06T04:26:41;101173.52;;;18.04;41.49
49063;BME280;34876;51.464;-0.150;2023-04-06T04:29:10;101171.52;;;18.05;41.51
49063;BME280;34876;51.464;-0.150;2023-04-06T04:31:39;101167.23;;;18.06;41.54
49063;BME280;34876;51.464;-0.150;2023-04-06T04:34:08;101166.16;;;18.02;41.62
49063;BME280;34876;51.464;-0.150;2023-04-06T04:36:37;101165.58;;;18.05;41.53
49063;BME280;34876;51.464;-0.150;2023-04-06T04:39:06;101163.24;;;18.05;41.55
49063;BME280;34876;51.464;-0.150;2023-04-06T04:41:35;101159.79;;;18.06;41.53
49063;BME280;34876;51.464;-0.150;2023-04-06T04:44:04;101158.75;;;18.07;41.48
49063;BME280;34876;51.464;-0.150;2023-04-06T04:46:33;101161.20;;;18.05;41.57
49063;BME280;34876;51.464;-0.150;2023-04-06T04:49:02;101163.99;;;18.06;41.55
49063;BME280;34876;51.464;-0.150;2023-04-06T04:51:30;101168.81;;;18.05;41.55
49063;BME280;34876;51.464;-0.150;2023-04-06T04:53:59;101171.46;;;18.05;41.61
49063;BME280;34876;51.464;-0.150;2023-04-06T04:56:30;101167.17;;;17.81;42.63
49063;BME280;34876;51.464;-0.150;2023-04-06T04:58:59;101167.03;;;18.00;41.73
49063;BME280;34876;51.464;-0.150;2023-04-06T05:01:28;101166.09;;;18.05;41.62
49063;BME280;34876;51.464;-0.150;2023-04-06T05:03:57;101166.11;;;18.06;41.59
49063;BME280;34876;51.464;-0.150;2023-04-06T05:06:28;101167.25;;;18.05;41.68
49063;BME280;34876;51.464;-0.150;2023-04-06T05:08:57;101163.91;;;18.02;41.71
49063;BME280;34876;51.464;-0.150;2023-04-06T05:11:26;101163.16;;;18.05;41.66
49063;BME280;34876;51.464;-0.150;2023-04-06T05:13:55;101159.23;;;18.06;41.63
49063;BME280;34876;51.464;-0.150;2023-04-06T05:16:25;101158.88;;;18.05;41.70
49063;BME280;34876;51.464;-0.150;2023-04-06T05:18:55;101157.57;;;18.05;41.72
49063;BME280;34876;51.464;-0.150;2023-04-06T05:21:24;101156.04;;;18.04;41.78
49063;BME280;34876;51.464;-0.150;2023-04-06T05:23:54;101151.71;;;18.06;41.67
49063;BME280;34876;51.464;-0.150;2023-04-06T05:26:23;101149.65;;;18.07;41.67
49063;BME280;34876;51.464;-0.150;2023-04-06T05:28:53;101147.67;;;18.06;41.74
49063;BME280;34876;51.464;-0.150;2023-04-06T05:31:22;101147.72;;;18.06;41.75
49063;BME280;34876;51.464;-0.150;2023-04-06T05:33:51;101146.34;;;17.88;42.31
49063;BME280;34876;51.464;-0.150;2023-04-06T05:36:24;101145.67;;;18.04;41.85
49063;BME280;34876;51.464;-0.150;2023-04-06T05:38:55;101145.43;;;18.04;41.80
49063;BME280;34876;51.464;-0.150;2023-04-06T05:41:24;101142.56;;;18.05;41.78
49063;BME280;34876;51.464;-0.150;2023-04-06T05:43:53;101141.98;;;18.06;41.84
49063;BME280;34876;51.464;-0.150;2023-04-06T05:46:22;101141.36;;;18.08;41.75
49063;BME280;34876;51.464;-0.150;2023-04-06T05:48:52;101143.50;;;18.06;41.83
49063;BME280;34876;51.464;-0.150;2023-04-06T05:51:21;101138.74;;;18.08;41.84
49063;BME280;34876;51.464;-0.150;2023-04-06T05:53:50;101136.45;;;18.07;41.80
49063;BME280;34876;51.464;-0.150;2023-04-06T05:56:19;101137.49;;;18.05;41.88
49063;BME280;34876;51.464;-0.150;2023-04-06T05:58:47;101140.93;;;18.09;41.79
49063;BME280;34876;51.464;-0.150;2023-04-06T06:01:16;101142.26;;;18.07;41.95
49063;BME280;34876;51.464;-0.150;2023-04-06T06:03:45;101140.91;;;18.10;41.85
49063;BME280;34876;51.464;-0.150;2023-04-06T06:06:14;101136.66;;;18.07;41.87
49063;BME280;34876;51.464;-0.150;2023-04-06T06:08:44;101133.41;;;18.08;41.87
49063;BME280;34876;51.464;-0.150;2023-04-06T06:11:13;101128.27;;;18.08;41.87
49063;BME280;34876;51.464;-0.150;2023-04-06T06:13:43;101130.22;;;18.08;41.91
49063;BME280;34876;51.464;-0.150;2023-04-06T06:16:11;101135.36;;;18.07;41.99
49063;BME280;34876;51.464;-0.150;2023-04-06T06:18:41;101135.45;;;18.09;41.97
49063;BME280;34876;51.464;-0.150;2023-04-06T06:21:11;101140.77;;;18.07;42.00
49063;BME280;34876;51.464;-0.150;2023-04-06T06:23:42;101146.13;;;18.10;41.92
49063;BME280;34876;51.464;-0.150;2023-04-06T06:26:12;101148.28;;;18.10;41.97
49063;BME280;34876;51.464;-0.150;2023-04-06T06:28:41;101148.17;;;18.09;42.01
49063;BME280;34876;51.464;-0.150;2023-04-06T06:31:09;101148.58;;;18.11;41.99
49063;BME280;34876;51.464;-0.150;2023-04-06T06:33:38;101145.82;;;18.06;43.99
49063;BME280;34876;51.464;-0.150;2023-04-06T06:36:07;101140.35;;;18.12;42.01
49063;BME280;34876;51.464;-0.150;2023-04-06T06:38:36;101140.97;;;18.11;41.99
49063;BME280;34876;51.464;-0.150;2023-04-06T06:41:06;101139.34;;;18.14;41.96
49063;BME280;34876;51.464;-0.150;2023-04-06T06:43:35;101140.82;;;18.14;41.97
49063;BME280;34876;51.464;-0.150;2023-04-06T06:46:04;101143.02;;;18.14;42.01
49063;BME280;34876;51.464;-0.150;2023-04-06T06:48:33;101140.46;;;18.14;41.97
49063;BME280;34876;51.464;-0.150;2023-04-06T06:51:03;101141.15;;;18.13;42.13
49063;BME280;34876;51.464;-0.150;2023-04-06T06:53:32;101141.26;;;18.16;41.97
49063;BME280;34876;51.464;-0.150;2023-04-06T06:56:06;101137.46;;;18.17;41.94
49063;BME280;34876;51.464;-0.150;2023-04-06T06:58:36;101131.62;;;18.19;41.95
49063;BME280;34876;51.464;-0.150;2023-04-06T07:01:05;101120.55;;;18.24;41.85
49063;BME280;34876;51.464;-0.150;2023-04-06T07:03:40;101121.23;;;18.31;41.72
49063;BME280;34876;51.464;-0.150;2023-04-06T07:06:09;101119.89;;;18.72;40.89
49063;BME280;34876;51.464;-0.150;2023-04-06T07:08:39;101128.48;;;18.86;40.54
49063;BME280;34876;51.464;-0.150;2023-04-06T07:11:08;101140.48;;;18.58;41.10
49063;BME280;34876;51.464;-0.150;2023-04-06T07:13:38;101140.74;;;18.61;41.06
49063;BME280;34876;51.464;-0.150;2023-04-06T07:16:07;101141.39;;;18.50;41.29
49063;BME280;34876;51.464;-0.150;2023-04-06T07:18:37;101140.22;;;18.35;41.74
49063;BME280;34876;51.464;-0.150;2023-04-06T07:21:06;101140.08;;;18.34;41.80
49063;BME280;34876;51.464;-0.150;2023-04-06T07:23:40;101133.33;;;18.39;41.68
49063;BME280;34876;51.464;-0.150;2023-04-06T07:26:11;101139.72;;;18.35;41.90
49063;BME280;34876;51.464;-0.150;2023-04-06T07:28:40;101142.68;;;18.12;42.53
49063;BME280;34876;51.464;-0.150;2023-04-06T07:31:10;101145.26;;;18.18;42.26
49063;BME280;34876;51.464;-0.150;2023-04-06T07:33:39;101144.65;;;18.18;42.35
49063;BME280;34876;51.464;-0.150;2023-04-06T07:36:09;101140.20;;;18.21;42.23
49063;BME280;34876;51.464;-0.150;2023-04-06T07:38:44;101148.25;;;18.22;42.18
49063;BME280;34876;51.464;-0.150;2023-04-06T07:41:12;101149.52;;;18.14;42.53
49063;BME280;34876;51.464;-0.150;2023-04-06T07:43:42;101148.66;;;18.09;42.61
49063;BME280;34876;51.464;-0.150;2023-04-06T07:46:12;101149.98;;;18.06;42.64
49063;BME280;34876;51.464;-0.150;2023-04-06T07:48:40;101151.01;;;18.01;42.88
49063;BME280;34876;51.464;-0.150;2023-04-06T07:51:08;101155.11;;;18.10;42.53
49063;BME280;34876;51.464;-0.150;2023-04-06T07:53:38;101158.51;;;18.17;42.44
49063;BME280;34876;51.464;-0.150;2023-04-06T07:56:12;101161.63;;;18.20;42.16
49063;BME280;34876;51.464;-0.150;2023-04-06T07:58:41;101164.32;;;18.06;43.82
49063;BME280;34876;51.464;-0.150;2023-04-06T08:01:11;101163.71;;;18.17;42.36
49063;BME280;34876;51.464;-0.150;2023-04-06T08:03:40;101164.47;;;18.05;42.78
49063;BME280;34876;51.464;-0.150;2023-04-06T08:06:10;101166.61;;;18.19;42.28
49063;BME280;34876;51.464;-0.150;2023-04-06T08:08:41;101164.58;;;18.20;42.31
49063;BME280;34876;51.464;-0.150;2023-04-06T08:11:10;101166.02;;;18.10;42.84
49063;BME280;34876;51.464;-0.150;2023-04-06T08:13:39;101169.21;;;17.67;43.83
49063;BME280;34876;51.464;-0.150;2023-04-06T08:16:08;101170.30;;;18.09;42.61
49063;BME280;34876;51.464;-0.150;2023-04-06T08:18:37;101170.01;;;17.81;43.34
49063;BME280;34876;51.464;-0.150;2023-04-06T08:21:07;101172.62;;;18.13;42.56
49063;BME280;34876;51.464;-0.150;2023-04-06T08:23:36;101175.03;;;17.75;43.59
49063;BME280;34876;51.464;-0.150;2023-04-06T08:26:06;101171.87;;;17.76;43.62
49063;BME280;34876;51.464;-0.150;2023-04-06T08:28:35;101172.02;;;18.10;42.45
49063;BME280;34876;51.464;-0.150;2023-04-06T08:31:05;101169.39;;;17.96;42.93
49063;BME280;34876;51.464;-0.150;2023-04-06T08:33:35;101167.36;;;18.15;42.35
49063;BME280;34876;51.464;-0.150;2023-04-06T08:36:08;101163.68;;;17.46;44.35
49063;BME280;34876;51.464;-0.150;2023-04-06T08:38:38;101158.93;;;17.87;43.34
49063;BME280;34876;51.464;-0.150;2023-04-06T08:41:09;101162.02;;;18.14;42.49
49063;BME280;34876;51.464;-0.150;2023-04-06T08:43:43;101161.71;;;18.17;42.28
49063;BME280;34876;51.464;-0.150;2023-04-06T08:46:14;101163.51;;;18.23;42.20
49063;BME280;34876;51.464;-0.150;2023-04-06T08:48:45;101166.96;;;18.22;42.20
49063;BME280;34876;51.464;-0.150;2023-04-06T08:51:16;101168.91;;;18.04;42.63
49063;BME280;34876;51.464;-0.150;2023-04-06T08:53:45;101170.99;;;18.24;42.28
49063;BME280;34876;51.464;-0.150;2023-04-06T08:56:15;101171.95;;;18.32;41.95
49063;BME280;34876;51.464;-0.150;2023-04-06T08:58:45;101169.66;;;18.25;46.14
49063;BME280;34876;51.464;-0.150;2023-04-06T09:01:14;101170.83;;;17.88;43.14
49063;BME280;34876;51.464;-0.150;2023-04-06T09:03:46;101172.15;;;18.25;42.22
49063;BME280;34876;51.464;-0.150;2023-04-06T09:06:30;101174.06;;;17.90;43.10
49063;BME280;34876;51.464;-0.150;2023-04-06T09:08:59;101175.36;;;18.28;42.03
49063;BME280;34876;51.464;-0.150;2023-04-06T09:11:28;101179.69;;;18.26;42.15
49063;BME280;34876;51.464;-0.150;2023-04-06T09:14:03;101181.60;;;18.22;42.12
49063;BME280;34876;51.464;-0.150;2023-04-06T09:16:39;101179.20;;;18.21;42.17
49063;BME280;34876;51.464;-0.150;2023-04-06T09:19:09;101181.67;;;18.23;42.16
49063;BME280;34876;51.464;-0.150;2023-04-06T09:21:44;101178.70;;;18.27;42.19
49063;BME280;34876;51.464;-0.150;2023-04-06T09:24:13;101178.91;;;18.26;42.13
49063;BME280;34876;51.464;-0.150;2023-04-06T09:26:45;101182.08;;;18.29;41.97
49063;BME280;34876;51.464;-0.150;2023-04-06T09:29:22;101180.93;;;18.19;42.89
49063;BME280;34876;51.464;-0.150;2023-04-06T09:31:52;101183.67;;;18.24;42.14
49063;BME280;34876;51.464;-0.150;2023-04-06T09:34:22;101182.72;;;18.21;42.15
49063;BME280;34876;51.464;-0.150;2023-04-06T09:36:52;101183.42;;;18.25;42.02
49063;BME280;34876;51.464;-0.150;2023-04-06T09:39:21;101181.68;;;18.06;42.51
49063;BME280;34876;51.464;-0.150;2023-04-06T09:41:52;101182.22;;;18.18;42.32
49063;BME280;34876;51.464;-0.150;2023-04-06T09:44:21;101182.50;;;18.19;42.17
49063;BME280;34876;51.464;-0.150;2023-04-06T09:46:53;101176.60;;;18.17;42.28
49063;BME280;34876;51.464;-0.150;2023-04-06T09:49:24;101177.54;;;17.86;43.14
49063;BME280;34876;51.464;-0.150;2023-04-06T09:51:58;101175.82;;;18.20;42.21
49063;BME280;34876;51.464;-0.150;2023-04-06T09:54:30;101177.18;;;18.29;41.95
49063;BME280;34876;51.464;-0.150;2023-04-06T09:57:05;101177.81;;;18.20;42.22
49063;BME280;34876;51.464;-0.150;2023-04-06T09:59:42;101179.11;;;18.24;42.17
49063;BME280;34876;51.464;-0.150;2023-04-06T10:02:20;101182.25;;;18.31;41.90
49063;BME280;34876;51.464;-0.150;2023-04-06T10:04:59;101180.90;;;18.16;42.32
49063;BME280;34876;51.464;-0.150;2023-04-06T10:07:31;101188.13;;;17.98;46.12
49063;BME280;34876;51.464;-0.150;2023-04-06T10:10:02;101188.43;;;17.35;44.58
49063;BME280;34876;51.464;-0.150;2023-04-06T10:12:37;101184.41;;;17.93;43.03
49063;BME280;34876;51.464;-0.150;2023-04-06T10:15:08;101184.78;;;17.98;42.93
49063;BME280;34876;51.464;-0.150;2023-04-06T10:17:37;101190.03;;;17.92;43.44
49063;BME280;34876;51.464;-0.150;2023-04-06T10:20:10;101192.59;;;17.95;45.87
49063;BME280;34876;51.464;-0.150;2023-04-06T10:22:51;101187.89;;;17.80;45.22
49063;BME280;34876;51.464;-0.150;2023-04-06T10:25:27;101192.84;;;18.11;42.50
49063;BME280;34876;51.464;-0.150;2023-04-06T10:28:00;101196.78;;;18.35;42.00
49063;BME280;34876;51.464;-0.150;2023-04-06T10:30:30;101195.30;;;18.32;42.02
49063;BME280;34876;51.464;-0.150;2023-04-06T10:33:00;101198.79;;;18.33;41.91
49063;BME280;34876;51.464;-0.150;2023-04-06T10:35:37;101199.72;;;17.67;43.74
49063;BME280;34876;51.464;-0.150;2023-04-06T10:38:07;101198.49;;;17.75;43.48
49063;BME280;34876;51.464;-0.150;2023-04-06T10:40:37;101203.15;;;17.93;44.60
49063;BME280;34876;51.464;-0.150;2023-04-06T10:43:08;101201.96;;;17.77;47.18
49063;BME280;34876;51.464;-0.150;2023-04-06T10:45:39;101204.03;;;18.26;42.14
49063;BME280;34876;51.464;-0.150;2023-04-06T10:48:17;101201.86;;;18.47;41.61
49063;BME280;34876;51.464;-0.150;2023-04-06T10:50:49;101208.17;;;18.42;41.72
49063;BME280;34876;51.464;-0.150;2023-04-06T10:53:23;101209.24;;;18.54;41.50
49063;BME280;34876;51.464;-0.150;2023-04-06T10:55:55;101207.14;;;18.55;41.60
49063;BME280;34876;51.464;-0.150;2023-04-06T10:58:25;101209.41;;;18.22;43.03
49063;BME280;34876;51.464;-0.150;2023-04-06T11:00:55;101212.62;;;18.08;42.97
49063;BME280;34876;51.464;-0.150;2023-04-06T11:03:27;101212.33;;;18.32;42.58
49063;BME280;34876;51.464;-0.150;2023-04-06T11:05:57;101213.65;;;18.17;43.15
49063;BME280;34876;51.464;-0.150;2023-04-06T11:08:28;101220.25;;;18.33;42.62
49063;BME280;34876;51.464;-0.150;2023-04-06T11:11:06;101216.99;;;18.45;41.86
49063;BME280;34876;51.464;-0.150;2023-04-06T11:13:40;101217.13;;;18.55;41.79
49063;BME280;34876;51.464;-0.150;2023-04-06T11:16:14;101221.04;;;18.60;41.62
49063;BME280;34876;51.464;-0.150;2023-04-06T11:18:49;101219.00;;;18.65;41.39
49063;BME280;34876;51.464;-0.150;2023-04-06T11:21:41;101217.91;;;18.57;41.95
49063;BME280;34876;51.464;-0.150;2023-04-06T11:24:13;101221.94;;;18.56;41.94
49063;BME280;34876;51.464;-0.150;2023-04-06T11:26:45;101224.23;;;18.46;42.05
49063;BME280;34876;51.464;-0.150;2023-04-06T11:29:16;101221.78;;;18.51;41.84
49063;BME280;34876;51.464;-0.150;2023-04-06T11:31:47;101220.95;;;18.44;42.18
49063;BME280;34876;51.464;-0.150;2023-04-06T11:34:18;101224.36;;;18.31;42.40
49063;BME280;34876;51.464;-0.150;2023-04-06T11:36:54;101225.02;;;17.82;43.60
49063;BME280;34876;51.464;-0.150;2023-04-06T11:39:25;101227.71;;;18.16;42.66
49063;BME280;34876;51.464;-0.150;2023-04-06T11:41:58;101229.30;;;18.10;42.98
49063;BME280;34876;51.464;-0.150;2023-04-06T11:44:30;101231.93;;;18.20;42.74
49063;BME280;34876;51.464;-0.150;2023-04-06T11:47:01;101233.65;;;18.29;42.34
49063;BME280;34876;51.464;-0.150;2023-04-06T11:49:30;101238.46;;;18.11;45.65
49063;BME280;34876;51.464;-0.150;2023-04-06T11:52:00;101239.31;;;18.38;42.16
49063;BME280;34876;51.464;-0.150;2023-04-06T11:54:31;101235.57;;;18.40;42.10
49063;BME280;34876;51.464;-0.150;2023-04-06T11:57:02;101236.37;;;18.47;42.25
49063;BME280;34876;51.464;-0.150;2023-04-06T11:59:31;101236.42;;;18.46;42.17
49063;BME280;34876;51.464;-0.150;2023-04-06T12:02:02;101238.78;;;18.52;41.81
49063;BME280;34876;51.464;-0.150;2023-04-06T12:04:31;101237.59;;;18.57;41.75
49063;BME280;34876;51.464;-0.150;2023-04-06T12:07:01;101238.75;;;18.55;41.80
49063;BME280;34876;51.464;-0.150;2023-04-06T12:09:32;101237.66;;;18.51;41.99
49063;BME280;34876;51.464;-0.150;2023-04-06T12:12:01;101242.01;;;18.60;41.62
49063;BME280;34876;51.464;-0.150;2023-04-06T12:14:31;101241.42;;;17.67;45.15
49063;BME280;34876;51.464;-0.150;2023-04-06T12:17:01;101241.13;;;17.81;43.70
49063;BME280;34876;51.464;-0.150;2023-04-06T12:19:30;101243.40;;;18.38;42.18
49063;BME280;34876;51.464;-0.150;2023-04-06T12:22:00;101241.46;;;18.21;42.46
49063;BME280;34876;51.464;-0.150;2023-04-06T12:24:30;101247.10;;;18.39;42.22
49063;BME280;34876;51.464;-0.150;2023-04-06T12:26:59;101244.47;;;18.03;41.25
49063;BME280;34876;51.464;-0.150;2023-04-06T12:29:28;101237.76;;;18.16;41.86
49063;BME280;34876;51.464;-0.150;2023-04-06T12:31:59;101236.54;;;18.25;41.73
49063;BME280;34876;51.464;-0.150;2023-04-06T12:34:28;101237.78;;;18.44;42.15
49063;BME280;34876;51.464;-0.150;2023-04-06T12:36:57;101237.53;;;18.46;41.91
49063;BME280;34876;51.464;-0.150;2023-04-06T12:39:27;101233.82;;;18.43;42.22
49063;BME280;34876;51.464;-0.150;2023-04-06T12:41:57;101232.07;;;18.58;41.60
49063;BME280;34876;51.464;-0.150;2023-04-06T12:44:26;101233.03;;;18.60;41.64
49063;BME280;34876;51.464;-0.150;2023-04-06T12:46:57;101236.84;;;17.95;42.74
49063;BME280;34876;51.464;-0.150;2023-04-06T12:49:26;101231.36;;;17.86;42.77
49063;BME280;34876;51.464;-0.150;2023-04-06T12:51:56;101230.05;;;18.42;41.91
49063;BME280;34876;51.464;-0.150;2023-04-06T12:54:27;101234.67;;;18.25;42.52
49063;BME280;34876;51.464;-0.150;2023-04-06T12:56:56;101241.41;;;17.54;41.85
49063;BME280;34876;51.464;-0.150;2023-04-06T12:59:34;101243.02;;;18.13;42.78